7TA1 weather

Navasota Regional Hospital Heliport
Navasota, Texas, United States

Public forecast

Using degrees Fahrenheit for public forecast. Weather courtesy of forecast.io.

METAR (pilot weather report)

Closest report is Brenham Municipal Airport, 18.6 nm (34.4 km) SW. Retrieved 2019/07/20 14:35 UTC (20 minutes ago):

K11R 201435Z AUTO 16006KT 10SM SCT012 BKN017 BKN021 29/27 A3002 RMK AO2 T02870267

TAF (pilot weather forecast)

Closest forecast is Easterwood Field, 18.9 nm (35.1 km) NW. Retrieved 2019/07/20 12:00 UTC (3 hours ago):

TAF KCLL 201157Z 2012/2112 VRB03KT P6SM SCT003 BKN018 TEMPO 2012/2013 BKN003 FM201500 17008KT P6SM FEW018 SCT025 FM210900 18005KT P6SM SCT015 FM211000 VRB04KT P6SM BKN015